Time;durP1;ratioP1;P1;durP2;ratioP2;P2;SDS_P1;SDS_P2;PMS_P1;PMS_P2;Temp;Humidity;BMP_temperature;BMP_pressure;BME280_temperature;BME280_humidity;BME280_pressure;Samples;Min_cycle;Max_cycle;Signal;HPM_P1;HPM_P2
2021/01/09 00:00:10;;;;;;;15.77;11.00;;;;;;;;;;5033652;28;20037;-81
2021/01/09 00:02:36;;;;;;;14.20;10.02;;;;;;;;;;5035223;28;20029;-79
2021/01/09 00:05:03;;;;;;;16.88;10.40;;;;;;;;;;5034901;28;20096;-76
2021/01/09 00:07:32;;;;;;;15.75;10.23;;;;;;;;;;5035166;28;20548;-77
2021/01/09 00:09:59;;;;;;;16.38;9.93;;;;;;;;;;5035217;28;20036;-75
2021/01/09 00:12:25;;;;;;;14.65;10.35;;;;;;;;;;5035024;28;20022;-73
2021/01/09 00:14:51;;;;;;;14.23;10.13;;;;;;;;;;5034809;28;20029;-76
2021/01/09 00:17:17;;;;;;;15.18;10.25;;;;;;;;;;5033714;28;20017;-73
2021/01/09 00:19:44;;;;;;;14.65;10.75;;;;;;;;;;5033730;28;20025;-84
2021/01/09 00:22:10;;;;;;;16.88;10.48;;;;;;;;;;5034166;28;20384;-76
2021/01/09 00:24:36;;;;;;;14.95;10.57;;;;;;;;;;5034721;28;20549;-73
2021/01/09 00:27:07;;;;;;;15.70;10.90;;;;;;;;;;5033390;28;20128;-72
2021/01/09 00:29:33;;;;;;;13.63;10.15;;;;;;;;;;5034766;28;20136;-72
2021/01/09 00:31:59;;;;;;;14.38;10.15;;;;;;;;;;5033478;28;20037;-73
2021/01/09 00:34:25;;;;;;;16.13;10.63;;;;;;;;;;5034636;28;20031;-75
2021/01/09 00:36:51;;;;;;;14.27;10.00;;;;;;;;;;5034499;28;20049;-74
2021/01/09 00:39:17;;;;;;;15.77;10.10;;;;;;;;;;5033277;28;20029;-74
2021/01/09 00:41:43;;;;;;;12.80;10.02;;;;;;;;;;5034444;28;20033;-76
2021/01/09 00:44:10;;;;;;;12.40;9.18;;;;;;;;;;5034600;28;20029;-74
2021/01/09 00:46:36;;;;;;;12.05;8.35;;;;;;;;;;5034355;28;20053;-72
2021/01/09 00:49:03;;;;;;;11.82;8.35;;;;;;;;;;5034413;28;20030;-73
2021/01/09 00:51:29;;;;;;;12.82;8.18;;;;;;;;;;5034143;28;20103;-77
2021/01/09 00:53:55;;;;;;;12.45;8.75;;;;;;;;;;5049352;28;20021;-74
2021/01/09 00:56:21;;;;;;;11.30;7.85;;;;;;;;;;5049425;28;20029;-73
2021/01/09 00:58:48;;;;;;;13.05;8.63;;;;;;;;;;5048979;28;20527;-74
2021/01/09 01:01:14;;;;;;;12.20;7.90;;;;;;;;;;5049514;28;20041;-76
2021/01/09 01:03:42;;;;;;;12.32;8.05;;;;;;;;;;5049461;28;20033;-71
2021/01/09 01:06:08;;;;;;;12.25;8.10;;;;;;;;;;5034070;28;20021;-72
2021/01/09 01:08:34;;;;;;;11.85;7.35;;;;;;;;;;5034278;28;20033;-81
2021/01/09 01:11:00;;;;;;;10.98;7.45;;;;;;;;;;5034154;28;20435;-84
2021/01/09 01:13:26;;;;;;;10.88;7.72;;;;;;;;;;5033219;28;20025;-84
2021/01/09 01:15:52;;;;;;;14.05;8.57;;;;;;;;;;5033815;28;20026;-80
2021/01/09 01:18:22;;;;;;;10.80;7.40;;;;;;;;;;5049340;28;20519;-83
2021/01/09 01:20:49;;;;;;;9.85;7.10;;;;;;;;;;5033711;28;20034;-78
2021/01/09 01:23:15;;;;;;;17.50;7.35;;;;;;;;;;5033750;28;20048;-77
2021/01/09 01:25:41;;;;;;;13.73;7.80;;;;;;;;;;5047510;28;20606;-78
2021/01/09 01:28:07;;;;;;;13.30;7.70;;;;;;;;;;5053208;28;20025;-75
2021/01/09 01:30:33;;;;;;;14.25;7.57;;;;;;;;;;5053206;28;20488;-75
2021/01/09 01:32:59;;;;;;;12.40;8.02;;;;;;;;;;5053431;28;20500;-75
2021/01/09 01:35:25;;;;;;;12.45;7.78;;;;;;;;;;5053450;28;20381;-76
2021/01/09 01:37:52;;;;;;;10.88;7.95;;;;;;;;;;5053363;28;20516;-79
2021/01/09 01:40:18;;;;;;;11.75;7.38;;;;;;;;;;5053249;28;20025;-79
2021/01/09 01:42:44;;;;;;;14.90;9.40;;;;;;;;;;5051830;28;20028;-78
2021/01/09 01:45:11;;;;;;;20.63;8.68;;;;;;;;;;5051634;28;20033;-78
2021/01/09 01:47:37;;;;;;;13.55;8.70;;;;;;;;;;5045981;28;20124;-77
2021/01/09 01:50:04;;;;;;;11.63;7.88;;;;;;;;;;5033325;28;20059;-76
2021/01/09 01:52:30;;;;;;;13.02;9.02;;;;;;;;;;5033197;28;20029;-79
2021/01/09 01:54:56;;;;;;;16.60;8.82;;;;;;;;;;5031139;28;20420;-75
2021/01/09 01:57:22;;;;;;;13.90;8.40;;;;;;;;;;5031180;28;20026;-76
2021/01/09 01:59:48;;;;;;;23.38;9.60;;;;;;;;;;5030695;28;20252;-75
2021/01/09 02:02:14;;;;;;;12.90;8.82;;;;;;;;;;5031165;28;20040;-75
2021/01/09 02:04:47;;;;;;;13.55;9.20;;;;;;;;;;5031030;28;20119;-78
2021/01/09 02:07:18;;;;;;;13.43;9.13;;;;;;;;;;5045928;28;20059;-78
2021/01/09 02:09:45;;;;;;;13.43;9.18;;;;;;;;;;5050857;28;20112;-77
2021/01/09 02:12:16;;;;;;;14.48;9.05;;;;;;;;;;5051560;28;20145;-78
2021/01/09 02:14:43;;;;;;;13.95;8.80;;;;;;;;;;5051855;28;20021;-78
2021/01/09 02:17:10;;;;;;;14.18;9.10;;;;;;;;;;5052155;28;20499;-78
2021/01/09 02:19:38;;;;;;;13.55;8.52;;;;;;;;;;5052280;28;20021;-79
2021/01/09 02:22:05;;;;;;;15.68;9.07;;;;;;;;;;5051324;28;20601;-78
2021/01/09 02:24:31;;;;;;;14.80;9.15;;;;;;;;;;5052582;28;20021;-78
2021/01/09 02:26:58;;;;;;;16.38;9.02;;;;;;;;;;5052640;28;20373;-78
2021/01/09 02:29:24;;;;;;;13.57;9.00;;;;;;;;;;5052490;28;20480;-78
2021/01/09 02:32:01;;;;;;;12.25;8.73;;;;;;;;;;5052603;28;20100;-78
2021/01/09 02:34:30;;;;;;;13.73;8.63;;;;;;;;;;5052429;28;20074;-78
2021/01/09 02:36:57;;;;;;;11.77;8.18;;;;;;;;;;5050888;28;20028;-76
2021/01/09 02:39:25;;;;;;;12.18;8.70;;;;;;;;;;5052162;28;20032;-76
2021/01/09 02:41:52;;;;;;;12.15;8.70;;;;;;;;;;5052269;28;20033;-76
2021/01/09 02:44:18;;;;;;;12.75;8.90;;;;;;;;;;5051099;28;20025;-77
2021/01/09 02:46:44;;;;;;;14.02;9.63;;;;;;;;;;5052118;28;20032;-78
2021/01/09 02:49:10;;;;;;;12.32;8.93;;;;;;;;;;5051955;28;20104;-75
2021/01/09 02:51:36;;;;;;;12.73;8.43;;;;;;;;;;5052067;28;20085;-78
2021/01/09 02:54:02;;;;;;;12.45;8.25;;;;;;;;;;5050913;28;20112;-76
2021/01/09 02:56:28;;;;;;;14.93;8.93;;;;;;;;;;5052021;28;20602;-77
2021/01/09 02:58:54;;;;;;;13.07;8.60;;;;;;;;;;5052036;28;20446;-77
2021/01/09 03:01:20;;;;;;;16.63;9.20;;;;;;;;;;5051876;28;20032;-78
2021/01/09 03:03:46;;;;;;;13.15;8.32;;;;;;;;;;5050592;28;20039;-78
2021/01/09 03:06:12;;;;;;;13.77;9.18;;;;;;;;;;5051807;28;20121;-76
2021/01/09 03:08:38;;;;;;;13.10;8.77;;;;;;;;;;5050511;28;20080;-77
2021/01/09 03:11:04;;;;;;;13.90;8.88;;;;;;;;;;5051685;28;20393;-77
2021/01/09 03:13:30;;;;;;;12.73;8.63;;;;;;;;;;5051745;28;20021;-76
2021/01/09 03:15:56;;;;;;;13.70;8.65;;;;;;;;;;5051730;28;20092;-76
2021/01/09 03:18:22;;;;;;;12.95;8.90;;;;;;;;;;5051709;28;20439;-77
2021/01/09 03:20:49;;;;;;;14.05;8.93;;;;;;;;;;5051656;28;20032;-76
2021/01/09 03:23:15;;;;;;;15.23;8.52;;;;;;;;;;5051406;28;20044;-76
2021/01/09 03:25:41;;;;;;;14.52;9.35;;;;;;;;;;5051683;28;20044;-76
2021/01/09 03:28:07;;;;;;;15.00;9.20;;;;;;;;;;5050189;28;20027;-75
2021/01/09 03:30:33;;;;;;;11.57;7.90;;;;;;;;;;5051628;28;20025;-76
2021/01/09 03:32:59;;;;;;;13.95;9.30;;;;;;;;;;5051682;28;20017;-78
2021/01/09 03:35:26;;;;;;;13.38;8.82;;;;;;;;;;5051443;28;20056;-76
2021/01/09 03:37:52;;;;;;;14.13;8.57;;;;;;;;;;5050043;28;20041;-76
2021/01/09 03:40:19;;;;;;;12.98;8.50;;;;;;;;;;5050076;28;20033;-77
2021/01/09 03:42:45;;;;;;;14.85;9.75;;;;;;;;;;5051300;28;20075;-77
2021/01/09 03:45:11;;;;;;;12.40;8.98;;;;;;;;;;5051154;28;20067;-76
2021/01/09 03:47:37;;;;;;;13.52;8.55;;;;;;;;;;5050235;28;20053;-75
2021/01/09 03:50:04;;;;;;;15.23;9.27;;;;;;;;;;5048195;28;20025;-78
2021/01/09 03:52:30;;;;;;;13.10;8.65;;;;;;;;;;5050056;28;20040;-78
2021/01/09 03:54:57;;;;;;;13.75;9.15;;;;;;;;;;5049971;28;20025;-78
2021/01/09 03:57:23;;;;;;;14.10;8.73;;;;;;;;;;5051314;28;20013;-79
2021/01/09 03:59:49;;;;;;;14.77;9.43;;;;;;;;;;5051081;28;20591;-78
2021/01/09 04:02:15;;;;;;;13.02;8.65;;;;;;;;;;5049874;28;20135;-79
2021/01/09 04:04:41;;;;;;;13.55;8.48;;;;;;;;;;5049962;28;20068;-78
2021/01/09 04:07:07;;;;;;;13.00;8.80;;;;;;;;;;5047498;28;20029;-78
2021/01/09 04:09:34;;;;;;;11.52;8.48;;;;;;;;;;5051088;28;20153;-78
2021/01/09 04:12:00;;;;;;;13.95;8.65;;;;;;;;;;5051085;28;20083;-76
2021/01/09 04:14:26;;;;;;;14.95;9.35;;;;;;;;;;5049863;28;20388;-76
2021/01/09 04:16:52;;;;;;;13.23;8.52;;;;;;;;;;5049832;28;20029;-77
2021/01/09 04:19:18;;;;;;;13.10;8.93;;;;;;;;;;5049730;28;20114;-76
2021/01/09 04:21:51;;;;;;;14.55;9.05;;;;;;;;;;5049883;28;20131;-76
2021/01/09 04:24:18;;;;;;;12.88;8.60;;;;;;;;;;5050772;28;20028;-76
2021/01/09 04:26:44;;;;;;;15.43;8.93;;;;;;;;;;5050929;28;20051;-76
2021/01/09 04:29:10;;;;;;;12.75;8.75;;;;;;;;;;5049850;28;20079;-78
2021/01/09 04:31:36;;;;;;;11.88;8.25;;;;;;;;;;5049623;28;20029;-76
2021/01/09 04:34:02;;;;;;;13.38;8.55;;;;;;;;;;5052065;28;20063;-79
2021/01/09 04:36:28;;;;;;;11.77;7.85;;;;;;;;;;5053139;28;20025;-75
2021/01/09 04:38:54;;;;;;;15.93;9.20;;;;;;;;;;5054392;28;20091;-76
2021/01/09 04:41:21;;;;;;;13.82;8.85;;;;;;;;;;5053069;28;20043;-76
2021/01/09 04:43:48;;;;;;;14.00;9.20;;;;;;;;;;5054585;28;20025;-76
2021/01/09 04:46:16;;;;;;;13.60;8.98;;;;;;;;;;5054531;28;20029;-75
2021/01/09 04:48:42;;;;;;;13.80;9.18;;;;;;;;;;5052834;28;20474;-75
2021/01/09 04:51:09;;;;;;;13.95;8.75;;;;;;;;;;5054274;28;20167;-79
2021/01/09 04:53:35;;;;;;;14.13;9.18;;;;;;;;;;5052942;28;20021;-78
2021/01/09 04:56:02;;;;;;;13.88;8.52;;;;;;;;;;5054194;28;20048;-79
2021/01/09 04:58:28;;;;;;;15.70;9.77;;;;;;;;;;5054052;28;20009;-77
2021/01/09 05:00:55;;;;;;;17.15;9.52;;;;;;;;;;5054015;28;20033;-77
2021/01/09 05:03:21;;;;;;;16.73;9.90;;;;;;;;;;5054218;28;20025;-79
2021/01/09 05:05:48;;;;;;;14.82;9.45;;;;;;;;;;5053993;28;20143;-78
2021/01/09 05:08:14;;;;;;;16.08;9.05;;;;;;;;;;5053999;28;20473;-78
2021/01/09 05:10:41;;;;;;;14.00;9.13;;;;;;;;;;5054011;28;20039;-77
2021/01/09 05:13:07;;;;;;;13.68;8.82;;;;;;;;;;5053928;28;20040;-76
2021/01/09 05:15:36;;;;;;;13.50;9.00;;;;;;;;;;5052578;28;20120;-76
2021/01/09 05:18:03;;;;;;;15.20;9.40;;;;;;;;;;5053901;28;20021;-76
2021/01/09 05:20:29;;;;;;;14.10;9.00;;;;;;;;;;5053777;28;20060;-76
2021/01/09 05:22:55;;;;;;;15.60;9.20;;;;;;;;;;5053555;28;20083;-76
2021/01/09 05:25:25;;;;;;;14.30;9.25;;;;;;;;;;5052262;28;20029;-77
2021/01/09 05:27:57;;;;;;;14.27;8.93;;;;;;;;;;5053672;28;20381;-76
2021/01/09 05:30:24;;;;;;;12.25;8.63;;;;;;;;;;5052443;28;20095;-77
2021/01/09 05:32:50;;;;;;;14.15;9.20;;;;;;;;;;5053507;28;20032;-75
2021/01/09 05:35:17;;;;;;;15.60;9.45;;;;;;;;;;5052203;28;20028;-76
2021/01/09 05:37:50;;;;;;;14.27;9.32;;;;;;;;;;5053523;28;20060;-76
2021/01/09 05:40:16;;;;;;;14.55;9.10;;;;;;;;;;5053433;28;20037;-77
2021/01/09 05:42:42;;;;;;;16.58;9.70;;;;;;;;;;5052084;28;20029;-76
2021/01/09 05:45:09;;;;;;;13.35;8.77;;;;;;;;;;5053102;28;20009;-78
2021/01/09 05:47:36;;;;;;;14.40;8.93;;;;;;;;;;5052060;28;20036;-75
2021/01/09 05:50:04;;;;;;;13.57;8.77;;;;;;;;;;5039476;28;20025;-76
2021/01/09 05:52:30;;;;;;;14.48;9.18;;;;;;;;;;5032171;28;20047;-77
2021/01/09 05:54:56;;;;;;;12.45;8.50;;;;;;;;;;5031516;28;20025;-78
2021/01/09 05:57:27;;;;;;;16.20;9.15;;;;;;;;;;5032500;28;20036;-79
2021/01/09 05:59:53;;;;;;;14.10;9.00;;;;;;;;;;5031131;28;20374;-78
2021/01/09 06:02:22;;;;;;;16.23;8.90;;;;;;;;;;5032218;28;20029;-79
2021/01/09 06:04:49;;;;;;;13.20;9.10;;;;;;;;;;5032248;28;20029;-80
2021/01/09 06:07:21;;;;;;;13.45;8.90;;;;;;;;;;5042012;28;20530;-79
2021/01/09 06:10:14;;;;;;;13.30;8.85;;;;;;;;;;5050891;28;20029;-78
2021/01/09 06:12:54;;;;;;;15.60;9.15;;;;;;;;;;5051011;28;20112;-79
2021/01/09 06:15:23;;;;;;;12.98;8.98;;;;;;;;;;5052027;28;20029;-78
2021/01/09 06:17:50;;;;;;;12.75;8.32;;;;;;;;;;5052228;28;20017;-79
2021/01/09 06:20:16;;;;;;;12.70;8.25;;;;;;;;;;5051860;28;20040;-79
2021/01/09 06:22:43;;;;;;;12.45;8.07;;;;;;;;;;5052141;28;20021;-79
2021/01/09 06:25:12;;;;;;;14.75;8.85;;;;;;;;;;5052570;28;20116;-76
2021/01/09 06:27:41;;;;;;;11.95;7.97;;;;;;;;;;5051245;28;20017;-77
2021/01/09 06:30:10;;;;;;;14.40;8.32;;;;;;;;;;5052275;28;20029;-76
2021/01/09 06:32:41;;;;;;;12.57;8.25;;;;;;;;;;5052463;28;20021;-75
2021/01/09 06:35:08;;;;;;;12.93;9.20;;;;;;;;;;5050903;28;20056;-78
2021/01/09 06:37:35;;;;;;;12.57;8.30;;;;;;;;;;5052126;28;20060;-76
2021/01/09 06:40:02;;;;;;;11.80;7.78;;;;;;;;;;5052352;28;20187;-76
2021/01/09 06:42:30;;;;;;;11.50;8.02;;;;;;;;;;5052363;28;20053;-78
2021/01/09 06:44:56;;;;;;;14.77;8.38;;;;;;;;;;5051991;28;20384;-75
2021/01/09 06:47:29;;;;;;;13.20;8.68;;;;;;;;;;5052395;28;20035;-75
2021/01/09 06:49:55;;;;;;;12.27;8.23;;;;;;;;;;5052145;28;20149;-78
2021/01/09 06:52:23;;;;;;;12.98;7.55;;;;;;;;;;5050619;28;20096;-76
2021/01/09 06:54:49;;;;;;;12.23;8.50;;;;;;;;;;5051672;28;20460;-79
2021/01/09 06:57:19;;;;;;;12.75;7.85;;;;;;;;;;5049907;28;20033;-79
2021/01/09 06:59:46;;;;;;;12.13;7.93;;;;;;;;;;5051858;28;20025;-79
2021/01/09 07:02:12;;;;;;;13.20;7.90;;;;;;;;;;5051796;28;20044;-79
2021/01/09 07:04:48;;;;;;;12.23;7.78;;;;;;;;;;5051745;28;20027;-78
2021/01/09 07:07:23;;;;;;;13.20;7.80;;;;;;;;;;5051923;28;20090;-79
2021/01/09 07:09:50;;;;;;;11.00;7.10;;;;;;;;;;5051914;28;20138;-79
2021/01/09 07:12:17;;;;;;;13.50;7.18;;;;;;;;;;5051652;28;20074;-79
2021/01/09 07:14:44;;;;;;;11.68;7.97;;;;;;;;;;5050333;28;20021;-78
2021/01/09 07:17:13;;;;;;;9.82;7.25;;;;;;;;;;5051726;28;20032;-79
2021/01/09 07:19:41;;;;;;;21.00;7.10;;;;;;;;;;5050370;28;20054;-80
2021/01/09 07:22:09;;;;;;;11.02;7.40;;;;;;;;;;5051625;28;20033;-79
2021/01/09 07:24:38;;;;;;;11.13;7.15;;;;;;;;;;5051566;28;20028;-79
2021/01/09 07:27:07;;;;;;;9.45;6.93;;;;;;;;;;5051658;28;20468;-79
2021/01/09 07:29:39;;;;;;;9.95;6.38;;;;;;;;;;5051565;28;20099;-79
2021/01/09 07:32:05;;;;;;;11.60;6.57;;;;;;;;;;5050173;28;20020;-79
2021/01/09 07:34:33;;;;;;;9.73;6.57;;;;;;;;;;5049978;28;20431;-78
2021/01/09 07:37:00;;;;;;;9.88;6.43;;;;;;;;;;5051343;28;20025;-78
2021/01/09 07:39:26;;;;;;;10.63;6.78;;;;;;;;;;5051418;28;20047;-78
2021/01/09 07:41:53;;;;;;;10.85;6.53;;;;;;;;;;5050041;28;20040;-77
2021/01/09 07:44:20;;;;;;;11.00;6.90;;;;;;;;;;5050020;28;20029;-76
2021/01/09 07:47:12;;;;;;;10.15;6.55;;;;;;;;;;5042450;28;20029;-76
2021/01/09 07:49:38;;;;;;;10.32;6.43;;;;;;;;;;5035626;28;20106;-78
2021/01/09 07:52:05;;;;;;;10.15;6.50;;;;;;;;;;5050431;28;20048;-79
2021/01/09 07:54:39;;;;;;;11.70;6.30;;;;;;;;;;5050754;28;20056;-79
2021/01/09 07:57:06;;;;;;;11.30;6.22;;;;;;;;;;5049164;28;20060;-76
2021/01/09 07:59:32;;;;;;;11.43;7.25;;;;;;;;;;5048745;28;20029;-79
2021/01/09 08:01:58;;;;;;;11.45;7.70;;;;;;;;;;5050462;28;20060;-78
2021/01/09 08:04:24;;;;;;;13.75;7.32;;;;;;;;;;5050363;28;20029;-79
2021/01/09 08:06:50;;;;;;;10.85;7.15;;;;;;;;;;5048811;28;20484;-79
2021/01/09 08:09:16;;;;;;;11.75;7.15;;;;;;;;;;5052191;28;20040;-79
2021/01/09 08:11:42;;;;;;;10.40;7.68;;;;;;;;;;5053273;28;20115;-78
2021/01/09 08:14:08;;;;;;;10.27;6.30;;;;;;;;;;5053210;28;20053;-79
2021/01/09 08:16:34;;;;;;;10.68;6.50;;;;;;;;;;5053187;28;20546;-79
2021/01/09 08:19:13;;;;;;;14.25;7.70;;;;;;;;;;5052787;28;20086;-76
2021/01/09 08:21:39;;;;;;;11.95;6.68;;;;;;;;;;5054406;28;20056;-76
2021/01/09 08:24:05;;;;;;;10.25;6.53;;;;;;;;;;5054391;28;20021;-79
2021/01/09 08:26:33;;;;;;;10.98;6.68;;;;;;;;;;5054469;28;20112;-79
2021/01/09 08:28:59;;;;;;;10.02;6.90;;;;;;;;;;5052734;28;20068;-79
2021/01/09 08:31:26;;;;;;;11.00;7.60;;;;;;;;;;5052793;28;20033;-79
2021/01/09 08:33:52;;;;;;;10.93;7.53;;;;;;;;;;5052775;28;20014;-78
2021/01/09 08:36:21;;;;;;;12.82;7.00;;;;;;;;;;5051534;28;20025;-77
2021/01/09 08:38:49;;;;;;;10.55;6.70;;;;;;;;;;5052150;28;20048;-77
2021/01/09 08:41:15;;;;;;;9.98;6.70;;;;;;;;;;5051909;28;20127;-80
2021/01/09 08:43:41;;;;;;;12.43;8.05;;;;;;;;;;5052896;28;20024;-79
2021/01/09 08:46:12;;;;;;;13.40;7.50;;;;;;;;;;5054167;28;20013;-77
2021/01/09 08:48:38;;;;;;;12.20;7.18;;;;;;;;;;5054082;28;20032;-77
2021/01/09 08:51:10;;;;;;;12.98;7.60;;;;;;;;;;5052680;28;20040;-78
2021/01/09 08:53:55;;;;;;;13.87;7.73;;;;;;;;;;5053990;28;20171;-79
2021/01/09 08:56:22;;;;;;;10.63;7.28;;;;;;;;;;5053999;28;20361;-78
2021/01/09 08:58:49;;;;;;;11.50;8.00;;;;;;;;;;5049035;28;20028;-78
2021/01/09 09:01:16;;;;;;;12.30;7.30;;;;;;;;;;5052515;28;20036;-78
2021/01/09 09:03:48;;;;;;;10.77;6.88;;;;;;;;;;5052877;28;20028;-76
2021/01/09 09:06:15;;;;;;;12.77;7.68;;;;;;;;;;5044086;28;20457;-78
2021/01/09 09:08:41;;;;;;;11.95;7.35;;;;;;;;;;5053336;28;20510;-77
2021/01/09 09:11:07;;;;;;;13.55;7.90;;;;;;;;;;5053056;28;20110;-76
2021/01/09 09:13:34;;;;;;;12.98;7.72;;;;;;;;;;5053815;28;20025;-78
2021/01/09 09:16:15;;;;;;;14.00;7.60;;;;;;;;;;5042151;28;20020;-79
2021/01/09 09:18:41;;;;;;;11.40;6.50;;;;;;;;;;5052007;28;20025;-77
2021/01/09 09:21:09;;;;;;;9.20;5.60;;;;;;;;;;5051511;28;20060;-76
2021/01/09 09:23:35;;;;;;;14.85;5.60;;;;;;;;;;5052199;28;20024;-79
2021/01/09 09:26:05;;;;;;;10.07;5.15;;;;;;;;;;5052122;28;20106;-73
2021/01/09 09:28:31;;;;;;;11.35;5.18;;;;;;;;;;5052898;28;20029;-76
2021/01/09 09:30:57;;;;;;;8.90;4.40;;;;;;;;;;5053304;28;20115;-76
2021/01/09 09:33:24;;;;;;;16.23;4.22;;;;;;;;;;5052218;28;20074;-77
2021/01/09 09:35:51;;;;;;;11.35;4.18;;;;;;;;;;5053588;28;20025;-77
2021/01/09 09:38:26;;;;;;;7.80;4.10;;;;;;;;;;5051823;28;20049;-77
2021/01/09 09:41:03;;;;;;;7.80;3.80;;;;;;;;;;5051964;28;20033;-77
2021/01/09 09:43:29;;;;;;;7.15;2.88;;;;;;;;;;5052557;28;20509;-73
2021/01/09 09:46:03;;;;;;;6.45;3.30;;;;;;;;;;5053776;28;20044;-78
2021/01/09 09:48:32;;;;;;;5.97;3.20;;;;;;;;;;5051875;28;20066;-79
2021/01/09 09:51:05;;;;;;;6.32;3.30;;;;;;;;;;5049803;28;20021;-79
2021/01/09 09:53:39;;;;;;;6.40;3.00;;;;;;;;;;5053176;28;20384;-79
2021/01/09 09:56:19;;;;;;;5.60;2.50;;;;;;;;;;5053283;28;20032;-79
2021/01/09 09:58:47;;;;;;;6.63;2.60;;;;;;;;;;5051916;28;20384;-80
2021/01/09 10:01:16;;;;;;;6.57;2.78;;;;;;;;;;5051741;28;20075;-79
2021/01/09 10:03:43;;;;;;;32.30;9.55;;;;;;;;;;5050712;28;20083;-75
2021/01/09 10:06:09;;;;;;;34.95;9.30;;;;;;;;;;5052160;28;20134;-73
2021/01/09 10:08:35;;;;;;;22.85;7.63;;;;;;;;;;5051055;28;20024;-79
2021/01/09 10:11:02;;;;;;;45.28;8.43;;;;;;;;;;5050235;28;20116;-77
2021/01/09 10:13:29;;;;;;;42.97;7.05;;;;;;;;;;5052801;28;20036;-79
2021/01/09 10:15:58;;;;;;;33.03;7.35;;;;;;;;;;5050132;28;20032;-77
2021/01/09 10:18:24;;;;;;;22.00;6.53;;;;;;;;;;5049415;28;20111;-78
2021/01/09 10:20:50;;;;;;;19.45;6.68;;;;;;;;;;5052124;28;20446;-80
2021/01/09 10:23:17;;;;;;;15.05;6.72;;;;;;;;;;5049848;28;20170;-77
2021/01/09 10:25:43;;;;;;;16.63;6.18;;;;;;;;;;5052524;28;20029;-80
2021/01/09 10:28:09;;;;;;;17.52;7.03;;;;;;;;;;5052304;28;20025;-85
2021/01/09 10:30:35;;;;;;;18.58;7.75;;;;;;;;;;5050875;28;20456;-86
2021/01/09 10:33:02;;;;;;;16.60;7.22;;;;;;;;;;5053415;28;20031;-87
2021/01/09 10:35:28;;;;;;;20.33;8.40;;;;;;;;;;5072174;28;20039;-88
2021/01/09 10:37:54;;;;;;;18.20;8.32;;;;;;;;;;5060476;28;20072;-81
2021/01/09 10:40:22;;;;;;;22.40;7.45;;;;;;;;;;5043118;28;20025;-85
2021/01/09 10:43:08;;;;;;;13.98;7.88;;;;;;;;;;5030922;28;20406;-83
2021/01/09 10:45:47;;;;;;;13.65;7.65;;;;;;;;;;5034442;28;20120;-84
2021/01/09 10:48:15;;;;;;;18.38;8.40;;;;;;;;;;5047995;28;20052;-77
2021/01/09 10:50:41;;;;;;;16.48;8.25;;;;;;;;;;5047724;28;20029;-79
2021/01/09 10:53:07;;;;;;;16.90;8.57;;;;;;;;;;5030871;28;20052;-78
2021/01/09 10:55:35;;;;;;;16.77;8.35;;;;;;;;;;5032407;28;20025;-76
2021/01/09 10:58:02;;;;;;;25.92;8.55;;;;;;;;;;5045632;28;20067;-76
2021/01/09 11:00:28;;;;;;;23.42;7.55;;;;;;;;;;5046399;28;20087;-75
2021/01/09 11:02:54;;;;;;;24.33;8.60;;;;;;;;;;5048350;28;20040;-73
2021/01/09 11:05:20;;;;;;;28.67;8.65;;;;;;;;;;5037381;28;20013;-74
2021/01/09 11:07:46;;;;;;;23.58;7.80;;;;;;;;;;5061718;28;20041;-73
2021/01/09 11:10:12;;;;;;;21.00;8.38;;;;;;;;;;5056312;28;20025;-73
2021/01/09 11:12:38;;;;;;;25.73;8.38;;;;;;;;;;5067692;28;20028;-73
2021/01/09 11:15:04;;;;;;;20.10;8.43;;;;;;;;;;5041603;28;20031;-74
2021/01/09 11:17:30;;;;;;;15.00;8.18;;;;;;;;;;5060962;28;20075;-74
2021/01/09 11:19:56;;;;;;;20.02;7.72;;;;;;;;;;5068380;28;20037;-74
2021/01/09 11:22:22;;;;;;;18.58;9.27;;;;;;;;;;5048511;28;20029;-73
2021/01/09 11:24:48;;;;;;;17.88;8.35;;;;;;;;;;5049753;28;20028;-74
2021/01/09 11:27:15;;;;;;;17.05;7.65;;;;;;;;;;5051351;28;20430;-73
2021/01/09 11:29:41;;;;;;;20.52;8.23;;;;;;;;;;5051411;28;20043;-74
2021/01/09 11:32:07;;;;;;;22.15;8.75;;;;;;;;;;5051465;28;20388;-74
2021/01/09 11:34:33;;;;;;;20.45;7.50;;;;;;;;;;5050058;28;20063;-74
2021/01/09 11:36:59;;;;;;;30.05;8.50;;;;;;;;;;5054344;28;20032;-75
2021/01/09 11:39:26;;;;;;;19.45;7.30;;;;;;;;;;5050897;28;20075;-75
2021/01/09 11:41:56;;;;;;;22.25;7.88;;;;;;;;;;5049526;28;20044;-78
2021/01/09 11:44:22;;;;;;;12.60;6.78;;;;;;;;;;5056953;28;20021;-76
2021/01/09 11:46:48;;;;;;;15.75;7.65;;;;;;;;;;5057120;28;20036;-75
2021/01/09 11:49:14;;;;;;;18.13;8.65;;;;;;;;;;5048104;28;20028;-74
2021/01/09 11:51:40;;;;;;;15.73;7.95;;;;;;;;;;5055198;28;20116;-74
2021/01/09 11:54:06;;;;;;;18.25;8.95;;;;;;;;;;5064215;28;20496;-76
2021/01/09 11:56:32;;;;;;;15.75;8.90;;;;;;;;;;5055802;28;20392;-76
2021/01/09 11:58:58;;;;;;;17.40;9.13;;;;;;;;;;5056322;28;20468;-75
2021/01/09 12:01:24;;;;;;;17.20;11.00;;;;;;;;;;5056251;28;20116;-75
2021/01/09 12:03:50;;;;;;;26.67;11.40;;;;;;;;;;5056018;28;20076;-75
2021/01/09 12:06:17;;;;;;;18.83;10.45;;;;;;;;;;5055173;28;20029;-75
2021/01/09 12:08:44;;;;;;;19.20;9.93;;;;;;;;;;5054754;28;20024;-75
2021/01/09 12:11:10;;;;;;;18.70;10.05;;;;;;;;;;5056093;28;20029;-75
2021/01/09 12:13:36;;;;;;;19.02;9.77;;;;;;;;;;5054839;28;20067;-75
2021/01/09 12:16:03;;;;;;;16.42;9.68;;;;;;;;;;5055944;28;20029;-75
2021/01/09 12:18:29;;;;;;;17.90;9.85;;;;;;;;;;5057091;28;20033;-75
2021/01/09 12:20:55;;;;;;;20.42;9.45;;;;;;;;;;5056162;28;20116;-75
2021/01/09 12:23:21;;;;;;;15.48;8.15;;;;;;;;;;5057285;28;20075;-75
2021/01/09 12:25:47;;;;;;;11.45;7.35;;;;;;;;;;5057387;28;20013;-75
2021/01/09 12:28:13;;;;;;;12.70;6.88;;;;;;;;;;5057572;28;20108;-75
2021/01/09 12:30:39;;;;;;;14.07;6.80;;;;;;;;;;5056217;28;20055;-76
2021/01/09 12:33:07;;;;;;;11.80;6.43;;;;;;;;;;5057423;28;20024;-75
2021/01/09 12:35:33;;;;;;;11.02;5.85;;;;;;;;;;5056078;28;20120;-75
2021/01/09 12:37:59;;;;;;;9.73;5.72;;;;;;;;;;5056242;28;20068;-74
2021/01/09 12:40:25;;;;;;;9.38;5.40;;;;;;;;;;5057438;28;20381;-74
2021/01/09 12:42:51;;;;;;;9.27;5.30;;;;;;;;;;5057351;28;20537;-75
2021/01/09 12:45:17;;;;;;;8.93;4.88;;;;;;;;;;5057316;28;20408;-75
2021/01/09 12:47:46;;;;;;;8.85;4.65;;;;;;;;;;5057453;28;20424;-76
2021/01/09 12:50:13;;;;;;;10.48;4.88;;;;;;;;;;5056038;28;20013;-75
2021/01/09 12:52:39;;;;;;;7.30;4.10;;;;;;;;;;5055884;28;20040;-75
2021/01/09 12:55:05;;;;;;;15.95;4.82;;;;;;;;;;5043688;28;20036;-78
2021/01/09 12:57:31;;;;;;;16.48;5.18;;;;;;;;;;5050553;28;20529;-73
2021/01/09 12:59:57;;;;;;;14.43;4.65;;;;;;;;;;5052321;28;20024;-74
2021/01/09 13:02:23;;;;;;;18.48;4.28;;;;;;;;;;5053622;28;20117;-74
2021/01/09 13:04:49;;;;;;;10.30;3.83;;;;;;;;;;5053668;28;20028;-75
2021/01/09 13:07:15;;;;;;;19.98;4.40;;;;;;;;;;5054364;28;20029;-75
2021/01/09 13:09:41;;;;;;;12.70;4.15;;;;;;;;;;5052500;28;20021;-75
2021/01/09 13:12:07;;;;;;;13.57;3.85;;;;;;;;;;5053462;28;20021;-75
2021/01/09 13:14:34;;;;;;;16.25;4.22;;;;;;;;;;5048221;28;20058;-74
2021/01/09 13:17:00;;;;;;;12.15;4.03;;;;;;;;;;5052313;28;20680;-74
2021/01/09 13:19:26;;;;;;;15.13;3.90;;;;;;;;;;5053219;28;20028;-71
2021/01/09 13:21:57;;;;;;;14.55;3.72;;;;;;;;;;5053710;28;20040;-71
2021/01/09 13:24:23;;;;;;;7.05;4.25;;;;;;;;;;5053683;28;20373;-71
2021/01/09 13:26:49;;;;;;;9.10;4.28;;;;;;;;;;5053685;28;20031;-71
2021/01/09 13:29:15;;;;;;;12.50;4.18;;;;;;;;;;5053550;28;20009;-72
2021/01/09 13:31:42;;;;;;;9.57;3.90;;;;;;;;;;5053567;28;20033;-70
2021/01/09 13:34:09;;;;;;;8.80;3.92;;;;;;;;;;5052092;28;20025;-72
2021/01/09 13:36:36;;;;;;;10.10;3.50;;;;;;;;;;5053573;28;20138;-66
2021/01/09 13:39:03;;;;;;;10.63;4.47;;;;;;;;;;5053131;28;20049;-79
2021/01/09 13:41:29;;;;;;;9.18;4.50;;;;;;;;;;5054412;28;20491;-80
2021/01/09 13:43:55;;;;;;;7.70;4.22;;;;;;;;;;5053919;28;20021;-79
2021/01/09 13:46:22;;;;;;;7.65;3.97;;;;;;;;;;5053175;28;20480;-71
2021/01/09 13:48:48;;;;;;;7.25;3.72;;;;;;;;;;5053124;28;20017;-69
2021/01/09 13:51:27;;;;;;;11.85;4.35;;;;;;;;;;5048092;28;20025;-74
2021/01/09 13:53:54;;;;;;;8.30;3.90;;;;;;;;;;5053742;28;20515;-70
2021/01/09 13:56:20;;;;;;;7.28;4.13;;;;;;;;;;5052422;28;20028;-70
2021/01/09 13:58:46;;;;;;;8.57;3.75;;;;;;;;;;5051612;28;20074;-70
2021/01/09 14:01:12;;;;;;;7.20;4.40;;;;;;;;;;5052727;28;20075;-70
2021/01/09 14:03:39;;;;;;;7.28;3.78;;;;;;;;;;5052928;28;20029;-69
2021/01/09 14:06:05;;;;;;;7.60;3.85;;;;;;;;;;5051903;28;20075;-72
2021/01/09 14:08:31;;;;;;;8.77;4.22;;;;;;;;;;5052577;28;20506;-73
2021/01/09 14:10:57;;;;;;;7.07;4.60;;;;;;;;;;5052724;28;20099;-73
2021/01/09 14:13:23;;;;;;;9.23;4.57;;;;;;;;;;5052835;28;20039;-73
2021/01/09 14:15:49;;;;;;;9.80;5.38;;;;;;;;;;5052734;28;20049;-70
2021/01/09 14:18:15;;;;;;;8.70;5.47;;;;;;;;;;5051126;28;20665;-70
2021/01/09 14:20:41;;;;;;;12.90;7.13;;;;;;;;;;5053740;28;20103;-70
2021/01/09 14:23:07;;;;;;;10.70;6.53;;;;;;;;;;5048776;28;20033;-70
2021/01/09 14:25:33;;;;;;;13.13;7.60;;;;;;;;;;5052124;28;20044;-70
2021/01/09 14:28:00;;;;;;;15.20;6.63;;;;;;;;;;5051763;28;20040;-71
2021/01/09 14:30:26;;;;;;;13.35;6.78;;;;;;;;;;5050736;28;20423;-70